Time;durP1;ratioP1;P1;durP2;ratioP2;P2;SDS_P1;SDS_P2;PMS_P1;PMS_P2;Temp;Humidity;BMP_temperature;BMP_pressure;BME280_temperature;BME280_humidity;BME280_pressure;Samples;Min_cycle;Max_cycle;Signal;HPM_P1;HPM_P2
2022/05/04 00:01:18;;;;;;;0.40;0.40;;;18.30;90.60;;;;;;5064826;28;20488;-62
2022/05/04 00:03:49;;;;;;;1.03;0.50;;;18.30;88.60;;;;;;5064613;28;20444;-62
2022/05/04 00:06:21;;;;;;;0.60;0.60;;;18.20;90.20;;;;;;5065279;28;20432;-62
2022/05/04 00:08:54;;;;;;;0.57;0.50;;;18.20;90.20;;;;;;5060343;28;20464;-62
2022/05/04 00:11:25;;;;;;;1.33;0.80;;;17.70;89.80;;;;;;5052829;28;20443;-62
2022/05/04 00:13:56;;;;;;;1.20;1.10;;;17.60;90.80;;;;;;5063077;28;20475;-63
2022/05/04 00:16:27;;;;;;;0.93;0.83;;;17.40;91.20;;;;;;5055722;28;20519;-64
2022/05/04 00:18:58;;;;;;;0.97;0.50;;;17.40;91.20;;;;;;5059805;28;20488;-64
2022/05/04 00:21:29;;;;;;;1.00;0.63;;;17.30;92.30;;;;;;5060677;28;20495;-64
2022/05/04 00:24:01;;;;;;;0.67;0.60;;;17.00;90.80;;;;;;5050505;28;20465;-64
2022/05/04 00:26:32;;;;;;;0.70;0.60;;;16.70;92.40;;;;;;5052903;28;20472;-63
2022/05/04 00:29:03;;;;;;;1.67;0.50;;;16.80;94.80;;;;;;5047055;28;20498;-64
2022/05/04 00:31:34;;;;;;;1.10;0.83;;;16.80;93.80;;;;;;5052006;28;20477;-64
2022/05/04 00:34:05;;;;;;;0.67;0.67;;;16.90;92.70;;;;;;5062600;28;20460;-64
2022/05/04 00:36:36;;;;;;;1.60;1.13;;;16.90;93.40;;;;;;5063917;28;20459;-63
2022/05/04 00:39:08;;;;;;;0.80;0.60;;;16.80;93.00;;;;;;5057251;28;20887;-63
2022/05/04 00:41:39;;;;;;;1.00;0.90;;;16.90;92.20;;;;;;5062151;28;20823;-62
2022/05/04 00:44:10;;;;;;;0.60;0.60;;;17.00;93.10;;;;;;5061768;28;20464;-63
2022/05/04 00:46:41;;;;;;;0.60;0.60;;;17.20;93.20;;;;;;5074600;28;20443;-63
2022/05/04 00:49:12;;;;;;;1.57;1.00;;;17.30;92.80;;;;;;5059050;28;20478;-63
2022/05/04 00:51:43;;;;;;;1.00;0.80;;;17.30;92.50;;;;;;5060934;28;20461;-63
2022/05/04 00:54:15;;;;;;;1.27;0.80;;;17.40;92.00;;;;;;5063230;28;20467;-63
2022/05/04 00:56:46;;;;;;;0.90;0.63;;;17.30;91.90;;;;;;5063733;28;20467;-64
2022/05/04 00:59:17;;;;;;;1.43;0.87;;;17.20;92.60;;;;;;5062410;28;20549;-63
2022/05/04 01:01:48;;;;;;;1.77;0.80;;;17.10;92.40;;;;;;5062217;28;20549;-64
2022/05/04 01:04:19;;;;;;;1.40;1.10;;;17.10;93.10;;;;;;5062046;28;20432;-66
2022/05/04 01:06:50;;;;;;;1.10;1.00;;;17.10;93.10;;;;;;5063700;28;20452;-67
2022/05/04 01:09:20;;;;;;;2.20;1.27;;;17.10;93.20;;;;;;5062088;28;20452;-66
2022/05/04 01:11:51;;;;;;;1.87;1.50;;;17.00;94.20;;;;;;5055676;28;20460;-65
2022/05/04 01:14:22;;;;;;;1.30;1.20;;;17.10;93.90;;;;;;5063042;28;20456;-67
2022/05/04 01:16:53;;;;;;;1.77;1.53;;;17.10;94.40;;;;;;5063307;28;20464;-66
2022/05/04 01:19:24;;;;;;;3.10;1.40;;;17.00;93.60;;;;;;5061534;28;20517;-66
2022/05/04 01:21:56;;;;;;;2.30;1.87;;;16.80;93.90;;;;;;5052093;28;20555;-66
2022/05/04 01:24:29;;;;;;;1.43;1.33;;;16.80;94.00;;;;;;5062431;28;20444;-66
2022/05/04 01:27:00;;;;;;;2.67;1.70;;;16.70;94.80;;;;;;5061233;28;20491;-66
2022/05/04 01:29:31;;;;;;;1.47;1.37;;;16.80;95.10;;;;;;5061533;28;21005;-66
2022/05/04 01:32:01;;;;;;;1.87;1.30;;;16.80;95.20;;;;;;5054705;28;20433;-66
2022/05/04 01:34:32;;;;;;;1.63;1.40;;;16.70;94.90;;;;;;5055010;28;20541;-64
2022/05/04 01:37:05;;;;;;;1.67;1.57;;;16.50;94.70;;;;;;5059276;28;20456;-63
2022/05/04 01:39:36;;;;;;;1.57;1.47;;;16.40;94.60;;;;;;5057340;28;20469;-65
2022/05/04 01:42:13;;;;;;;2.43;1.47;;;16.30;95.40;;;;;;5061656;28;20963;-63
2022/05/04 01:44:45;;;;;;;1.83;1.40;;;16.10;94.80;;;;;;5061415;28;20926;-63
2022/05/04 01:47:15;;;;;;;2.10;1.77;;;16.00;94.60;;;;;;5058411;28;20475;-62
2022/05/04 01:49:46;;;;;;;1.80;1.40;;;15.90;95.60;;;;;;5059581;28;20476;-63
2022/05/04 01:52:19;;;;;;;1.93;1.60;;;15.90;95.30;;;;;;5062180;28;20456;-64
2022/05/04 01:54:50;;;;;;;3.00;1.70;;;15.80;95.90;;;;;;5061833;28;20516;-63
2022/05/04 01:57:22;;;;;;;2.00;1.80;;;15.70;96.00;;;;;;5060932;28;20470;-63
2022/05/04 01:59:52;;;;;;;4.27;2.27;;;15.70;95.10;;;;;;5061296;28;20460;-64
2022/05/04 02:02:24;;;;;;;2.73;1.50;;;15.60;95.90;;;;;;5060105;28;20480;-63
2022/05/04 02:04:56;;;;;;;1.70;1.60;;;15.40;95.70;;;;;;5061490;28;20464;-63
2022/05/04 02:07:29;;;;;;;2.70;1.80;;;15.30;96.30;;;;;;5061496;28;20489;-64
2022/05/04 02:10:00;;;;;;;2.67;2.00;;;15.20;96.70;;;;;;5061280;28;20456;-64
2022/05/04 02:12:31;;;;;;;4.57;1.90;;;15.10;96.60;;;;;;5060732;28;20781;-64
2022/05/04 02:15:03;;;;;;;3.50;2.20;;;15.10;96.60;;;;;;5060785;28;20986;-65
2022/05/04 02:17:34;;;;;;;2.40;2.10;;;15.10;97.30;;;;;;5058120;28;20512;-65
2022/05/04 02:20:06;;;;;;;3.00;1.83;;;15.00;97.20;;;;;;5060672;28;20804;-65
2022/05/04 02:22:38;;;;;;;7.00;2.40;;;15.00;96.70;;;;;;5061883;28;20516;-63
2022/05/04 02:25:10;;;;;;;2.00;1.60;;;14.90;97.10;;;;;;5057498;28;20578;-64
2022/05/04 02:27:41;;;;;;;5.40;2.40;;;14.80;97.20;;;;;;5062249;28;20448;-63
2022/05/04 02:30:13;;;;;;;3.33;2.33;;;14.80;97.50;;;;;;5060218;28;20468;-63
2022/05/04 02:32:44;;;;;;;4.30;2.00;;;14.80;97.00;;;;;;5059483;28;20977;-65
2022/05/04 02:38:04;;;;;;;3.63;3.00;;;14.60;97.80;;;;;;5056680;28;20456;-63
2022/05/04 02:40:35;;;;;;;8.07;5.07;;;14.50;97.90;;;;;;5060568;28;20453;-64
2022/05/04 02:43:08;;;;;;;28.67;14.90;;;14.50;98.10;;;;;;5060930;28;20480;-63
2022/05/04 02:45:38;;;;;;;24.03;13.30;;;14.40;98.60;;;;;;5059673;28;20464;-64
2022/05/04 02:48:11;;;;;;;8.27;5.37;;;14.20;98.70;;;;;;5059922;28;20467;-64
2022/05/04 02:50:41;;;;;;;6.67;3.63;;;14.20;98.70;;;;;;5061952;28;20464;-63
2022/05/04 02:53:14;;;;;;;2.70;2.10;;;14.20;99.50;;;;;;5060124;28;20662;-63
2022/05/04 02:55:45;;;;;;;2.70;2.30;;;14.10;99.80;;;;;;5060478;28;20456;-63
2022/05/04 02:58:15;;;;;;;3.70;2.10;;;14.10;99.90;;;;;;5061764;28;20475;-63
2022/05/04 03:00:46;;;;;;;2.77;1.80;;;13.90;99.90;;;;;;5061103;28;21055;-63
2022/05/04 03:03:16;;;;;;;2.00;1.80;;;13.90;99.90;;;;;;5060121;28;20485;-63
2022/05/04 03:05:47;;;;;;;2.20;1.80;;;13.90;99.90;;;;;;5061445;28;20471;-63
2022/05/04 03:08:19;;;;;;;2.30;1.80;;;13.80;99.90;;;;;;5059988;28;20479;-63
2022/05/04 03:13:37;;;;;;;2.33;2.13;;;13.70;99.90;;;;;;5061184;28;20463;-63
2022/05/04 03:16:08;;;;;;;3.97;2.80;;;13.60;99.90;;;;;;5059391;28;20484;-62
2022/05/04 03:18:39;;;;;;;4.00;1.90;;;13.60;99.90;;;;;;5060374;28;20460;-64
2022/05/04 03:21:10;;;;;;;2.70;2.13;;;13.50;99.90;;;;;;5059030;28;20464;-62
2022/05/04 03:23:42;;;;;;;2.60;1.77;;;13.50;99.90;;;;;;5060382;28;20785;-63
2022/05/04 03:26:13;;;;;;;2.80;2.00;;;13.40;99.90;;;;;;5059789;28;20959;-62
2022/05/04 03:28:44;;;;;;;4.33;2.00;;;13.40;99.90;;;;;;5061182;28;20444;-63
2022/05/04 03:31:15;;;;;;;3.20;1.80;;;13.30;99.90;;;;;;5055115;28;20575;-65
2022/05/04 03:33:46;;;;;;;3.77;2.00;;;13.20;99.90;;;;;;5059158;28;20464;-64
2022/05/04 03:36:17;;;;;;;2.50;2.20;;;13.10;99.90;;;;;;5060003;28;20461;-63
2022/05/04 03:38:49;;;;;;;3.00;2.00;;;13.00;99.90;;;;;;5059365;28;20464;-63
2022/05/04 03:41:20;;;;;;;3.10;1.50;;;13.10;99.90;;;;;;5060606;28;20579;-63
2022/05/04 03:43:51;;;;;;;3.77;2.20;;;13.00;99.90;;;;;;5059943;28;20474;-63
2022/05/04 03:46:23;;;;;;;2.67;1.70;;;13.00;99.90;;;;;;5059811;28;20471;-63
2022/05/04 03:48:56;;;;;;;3.60;2.00;;;12.90;99.90;;;;;;5061420;28;20501;-63
2022/05/04 03:51:28;;;;;;;3.30;2.10;;;12.90;99.90;;;;;;5057818;28;20456;-63
2022/05/04 03:54:00;;;;;;;2.83;2.10;;;12.80;99.90;;;;;;5059079;28;20480;-63
2022/05/04 03:56:31;;;;;;;4.40;2.03;;;12.80;99.90;;;;;;5060949;28;20540;-63
2022/05/04 03:59:02;;;;;;;4.47;2.20;;;12.80;99.90;;;;;;5059782;28;20478;-64
2022/05/04 04:01:33;;;;;;;3.20;2.37;;;12.70;99.90;;;;;;5063060;28;20472;-63
2022/05/04 04:04:05;;;;;;;7.10;2.77;;;12.70;99.90;;;;;;5063252;28;21082;-63
2022/05/04 04:06:36;;;;;;;3.00;2.00;;;12.60;99.90;;;;;;5064027;28;20466;-63
2022/05/04 04:09:09;;;;;;;3.47;2.00;;;12.50;99.90;;;;;;5063287;28;20464;-62
2022/05/04 04:11:40;;;;;;;4.57;2.00;;;12.40;99.90;;;;;;5065035;28;20516;-63
2022/05/04 04:14:11;;;;;;;2.07;1.60;;;12.40;99.90;;;;;;5060342;28;20468;-64
2022/05/04 04:16:42;;;;;;;5.33;1.90;;;12.40;99.90;;;;;;5064771;28;20456;-62
2022/05/04 04:19:13;;;;;;;5.60;2.20;;;12.30;99.90;;;;;;5063658;28;20456;-63
2022/05/04 04:21:52;;;;;;;5.57;1.90;;;12.30;99.90;;;;;;5063266;28;20464;-63
2022/05/04 04:24:25;;;;;;;2.93;1.87;;;12.20;99.90;;;;;;5062992;28;20459;-63
2022/05/04 04:26:56;;;;;;;3.50;2.10;;;12.20;99.90;;;;;;5063634;28;20460;-63
2022/05/04 04:29:26;;;;;;;3.63;2.23;;;12.10;99.90;;;;;;5063100;28;20498;-63
2022/05/04 04:31:57;;;;;;;3.30;1.83;;;12.10;99.90;;;;;;5060037;28;20473;-63
2022/05/04 04:34:28;;;;;;;3.77;1.83;;;12.00;99.90;;;;;;5050500;28;20459;-64
2022/05/04 04:36:59;;;;;;;6.63;2.00;;;12.00;99.90;;;;;;5063452;28;20460;-63
2022/05/04 04:39:31;;;;;;;3.80;2.90;;;12.00;99.90;;;;;;5062591;28;20471;-63
2022/05/04 04:42:02;;;;;;;4.27;2.23;;;11.90;99.90;;;;;;5063433;28;20494;-63
2022/05/04 04:44:37;;;;;;;6.20;2.40;;;11.80;99.90;;;;;;5062041;28;20472;-63
2022/05/04 04:47:08;;;;;;;7.37;3.00;;;11.70;99.90;;;;;;5062378;28;20464;-63
2022/05/04 04:49:39;;;;;;;7.10;2.07;;;11.60;99.90;;;;;;5063147;28;20830;-64
2022/05/04 04:52:10;;;;;;;4.30;2.63;;;11.60;99.90;;;;;;5063375;28;20448;-63
2022/05/04 04:54:42;;;;;;;6.27;2.47;;;11.50;99.90;;;;;;5060951;28;20495;-63
2022/05/04 04:57:13;;;;;;;5.57;2.17;;;11.40;99.90;;;;;;5063133;28;20460;-63
2022/05/04 04:59:50;;;;;;;5.60;2.43;;;11.40;99.90;;;;;;5062248;28;20456;-62
2022/05/04 05:02:21;;;;;;;6.17;2.40;;;11.40;99.90;;;;;;5062899;28;20523;-63
2022/05/04 05:04:52;;;;;;;3.00;1.90;;;11.30;99.90;;;;;;5061545;28;20453;-63
2022/05/04 05:07:23;;;;;;;3.43;2.20;;;11.30;99.90;;;;;;5062662;28;20467;-63
2022/05/04 05:09:56;;;;;;;6.80;2.40;;;11.20;99.90;;;;;;5061079;28;20460;-63
2022/05/04 05:12:26;;;;;;;4.40;2.10;;;11.10;99.90;;;;;;5061992;28;20468;-64
2022/05/04 05:17:44;;;;;;;4.00;2.30;;;11.00;99.90;;;;;;5057689;28;20447;-63
2022/05/04 05:20:15;;;;;;;4.03;2.20;;;10.90;99.90;;;;;;5063269;28;20453;-64
2022/05/04 05:22:46;;;;;;;4.07;2.27;;;11.00;99.90;;;;;;5063434;28;20472;-63
2022/05/04 05:25:19;;;;;;;5.70;2.40;;;11.10;99.90;;;;;;5062574;28;20472;-63
2022/05/04 05:27:53;;;;;;;4.60;2.30;;;11.10;99.90;;;;;;5063305;28;20451;-63
2022/05/04 05:30:23;;;;;;;5.10;2.67;;;11.00;99.90;;;;;;5062864;28;20452;-63
2022/05/04 05:32:54;;;;;;;5.03;2.50;;;10.90;99.90;;;;;;5062770;28;20479;-64
2022/05/04 05:35:25;;;;;;;7.93;2.80;;;10.80;99.90;;;;;;5053290;28;20444;-64
2022/05/04 05:37:56;;;;;;;6.17;3.17;;;10.90;99.90;;;;;;5062693;28;20467;-63
2022/05/04 05:40:28;;;;;;;5.90;2.23;;;10.70;99.90;;;;;;5060808;28;20452;-63
2022/05/04 05:42:59;;;;;;;3.37;2.20;;;10.70;99.90;;;;;;5063007;28;20542;-63
2022/05/04 05:45:30;;;;;;;3.27;2.43;;;10.70;99.90;;;;;;5062246;28;20467;-63
2022/05/04 05:48:01;;;;;;;5.33;2.17;;;10.80;99.90;;;;;;5062856;28;20456;-63
2022/05/04 05:50:33;;;;;;;5.50;2.90;;;10.80;99.90;;;;;;5062265;28;20444;-64
2022/05/04 05:53:05;;;;;;;6.53;2.30;;;10.70;99.90;;;;;;5062981;28;20445;-63
2022/05/04 05:55:37;;;;;;;5.90;2.10;;;10.70;99.90;;;;;;5062050;28;20467;-63
2022/05/04 05:58:09;;;;;;;5.90;2.03;;;10.60;99.90;;;;;;5062379;28;20476;-63
2022/05/04 06:00:40;;;;;;;5.10;2.37;;;10.50;99.90;;;;;;5062484;28;20456;-63
2022/05/04 06:03:12;;;;;;;5.03;3.20;;;10.50;99.90;;;;;;5062508;28;20959;-64
2022/05/04 06:05:43;;;;;;;4.43;1.80;;;10.50;99.90;;;;;;5062715;28;20445;-63
2022/05/04 06:08:14;;;;;;;3.43;2.73;;;10.40;99.90;;;;;;5062411;28;20468;-63
2022/05/04 06:10:46;;;;;;;6.10;2.70;;;10.30;99.90;;;;;;5062286;28;20470;-63
2022/05/04 06:13:18;;;;;;;5.23;3.67;;;10.40;99.90;;;;;;5048476;28;20457;-63
2022/05/04 06:15:49;;;;;;;3.47;2.50;;;10.20;99.90;;;;;;5062160;28;20482;-63
2022/05/04 06:18:20;;;;;;;6.53;2.73;;;10.20;99.90;;;;;;5062010;28;20445;-64
2022/05/04 06:20:52;;;;;;;3.27;2.37;;;10.20;99.90;;;;;;5046497;28;20460;-63
2022/05/04 06:23:22;;;;;;;7.30;2.80;;;10.10;99.90;;;;;;5060735;28;20821;-63
2022/05/04 06:25:55;;;;;;;4.17;1.97;;;10.00;99.90;;;;;;5062035;28;20456;-63
2022/05/04 06:28:25;;;;;;;5.17;2.77;;;9.90;99.90;;;;;;5062153;28;20531;-63
2022/05/04 06:36:31;;;;;;;3.63;2.50;;;10.00;99.90;;;;;;5061798;28;20447;-64
2022/05/04 06:39:02;;;;;;;7.47;2.63;;;10.00;99.90;;;;;;5060255;28;20489;-63
2022/05/04 06:41:34;;;;;;;5.10;2.37;;;9.90;99.90;;;;;;5061574;28;20448;-63
2022/05/04 06:44:05;;;;;;;3.33;1.93;;;9.80;99.90;;;;;;5059769;28;20510;-63
2022/05/04 06:46:41;;;;;;;5.23;2.30;;;9.80;99.90;;;;;;5060088;28;20464;-63
2022/05/04 06:49:13;;;;;;;3.50;2.50;;;9.80;99.90;;;;;;5057962;28;21900;-63
2022/05/04 06:51:43;;;;;;;4.00;2.60;;;9.80;99.90;;;;;;5060677;28;20456;-63
2022/05/04 06:54:14;;;;;;;5.93;2.90;;;9.80;99.90;;;;;;5059955;28;20525;-63
2022/05/04 06:56:55;;;;;;;5.00;3.00;;;9.80;99.90;;;;;;5060963;28;20463;-63
2022/05/04 06:59:26;;;;;;;3.37;3.07;;;9.70;99.90;;;;;;5059728;28;20539;-63
2022/05/04 07:01:58;;;;;;;4.73;2.90;;;9.70;99.90;;;;;;5061515;28;20556;-64
2022/05/04 07:04:28;;;;;;;2.80;2.33;;;9.50;99.90;;;;;;5060472;28;20502;-63
2022/05/04 07:07:00;;;;;;;3.97;3.30;;;9.60;99.90;;;;;;5058444;28;20471;-63
2022/05/04 07:09:31;;;;;;;3.13;2.80;;;9.60;99.90;;;;;;5059009;28;20221;-63
2022/05/04 07:12:03;;;;;;;8.45;2.90;;;9.60;99.90;;;;;;5060651;28;20220;-63
2022/05/04 07:14:34;;;;;;;4.85;3.08;;;9.50;99.90;;;;;;5059648;28;20242;-63
2022/05/04 07:17:05;;;;;;;4.72;2.85;;;9.50;99.90;;;;;;5058822;28;20243;-63
2022/05/04 07:19:36;;;;;;;5.53;2.90;;;9.40;99.90;;;;;;5060243;28;20305;-63
2022/05/04 07:22:07;;;;;;;7.43;3.05;;;9.50;99.90;;;;;;5059647;28;20206;-64
2022/05/04 07:24:38;;;;;;;7.20;2.50;;;9.40;99.90;;;;;;5059305;28;20210;-63
2022/05/04 07:27:11;;;;;;;4.00;2.50;;;9.40;99.90;;;;;;5060579;28;20315;-63
2022/05/04 07:29:42;;;;;;;10.10;2.85;;;9.40;99.90;;;;;;5059746;28;20209;-63
2022/05/04 07:32:13;;;;;;;7.07;2.80;;;9.40;99.90;;;;;;5059315;28;20645;-63
2022/05/04 07:34:44;;;;;;;6.03;3.17;;;9.30;99.90;;;;;;5062787;28;20490;-63
2022/05/04 07:37:15;;;;;;;5.82;2.50;;;9.40;99.90;;;;;;5064117;28;20205;-64
2022/05/04 07:42:35;;;;;;;5.63;2.83;;;9.40;99.90;;;;;;5064167;28;20201;-63
2022/05/04 07:45:07;;;;;;;3.20;2.50;;;9.20;99.90;;;;;;5048542;28;20869;-63
2022/05/04 07:47:39;;;;;;;5.60;2.92;;;9.30;99.90;;;;;;5063904;28;20523;-63
2022/05/04 07:50:11;;;;;;;6.72;3.28;;;9.30;99.90;;;;;;5063898;28;20265;-63
2022/05/04 07:52:42;;;;;;;5.40;2.80;;;9.20;99.90;;;;;;5061336;28;20206;-63
2022/05/04 07:55:13;;;;;;;7.22;2.85;;;9.10;99.90;;;;;;5049828;28;20194;-63
2022/05/04 07:57:48;;;;;;;4.30;2.90;;;9.10;99.90;;;;;;5063301;28;20202;-63
2022/05/04 08:06:01;;;;;;;7.20;3.75;;;9.00;99.90;;;;;;5064845;28;20236;-63
2022/05/04 08:08:32;;;;;;;6.72;3.55;;;9.00;99.90;;;;;;5063516;28;20511;-63
2022/05/04 08:11:04;;;;;;;5.68;3.10;;;8.90;99.90;;;;;;5073486;28;20599;-63
2022/05/04 08:13:36;;;;;;;4.70;2.88;;;8.90;99.90;;;;;;5064496;28;20220;-63
2022/05/04 08:16:10;;;;;;;3.30;2.85;;;8.90;99.90;;;;;;5064930;28;20352;-63
2022/05/04 08:18:41;;;;;;;5.07;3.25;;;8.90;99.90;;;;;;5063962;28;20233;-63
2022/05/04 08:21:12;;;;;;;7.18;3.30;;;8.80;99.90;;;;;;5054211;28;20226;-63
2022/05/04 08:23:43;;;;;;;6.25;3.13;;;8.70;99.90;;;;;;5063409;28;20273;-63
2022/05/04 08:26:14;;;;;;;9.75;3.25;;;8.70;99.90;;;;;;5063992;28;20210;-63
2022/05/04 08:28:46;;;;;;;10.60;3.78;;;8.70;99.90;;;;;;5064894;28;20340;-63
2022/05/04 08:31:17;;;;;;;4.50;3.55;;;8.60;99.90;;;;;;5064059;28;20545;-63
2022/05/04 08:33:48;;;;;;;6.93;3.42;;;8.60;99.90;;;;;;5063727;28;20240;-63
2022/05/04 08:36:19;;;;;;;5.35;3.60;;;8.60;99.90;;;;;;5064173;28;20208;-63
2022/05/04 08:38:50;;;;;;;4.53;2.78;;;8.60;99.90;;;;;;5062755;28;20198;-64
2022/05/04 08:41:22;;;;;;;5.07;3.00;;;8.50;99.90;;;;;;5063798;28;20194;-64
2022/05/04 08:43:57;;;;;;;6.72;4.10;;;8.50;99.90;;;;;;5063989;28;20194;-64
2022/05/04 08:46:29;;;;;;;10.20;3.15;;;8.40;99.90;;;;;;5063377;28;20661;-64
2022/05/04 08:49:01;;;;;;;6.68;2.78;;;8.40;99.90;;;;;;5063150;28;20252;-63
2022/05/04 08:51:33;;;;;;;5.80;3.88;;;8.50;99.90;;;;;;5063629;28;20206;-64
2022/05/04 08:54:05;;;;;;;4.57;3.47;;;8.50;99.90;;;;;;5062646;28;20202;-63
2022/05/04 08:56:36;;;;;;;8.70;4.18;;;8.50;99.90;;;;;;5063919;28;20221;-63
2022/05/04 08:59:09;;;;;;;6.75;3.30;;;8.50;99.90;;;;;;5063396;28;20856;-63
2022/05/04 09:01:40;;;;;;;4.40;3.53;;;8.50;99.90;;;;;;5063690;28;20309;-63
2022/05/04 09:04:11;;;;;;;9.27;3.38;;;8.40;99.90;;;;;;5062506;28;20267;-64
2022/05/04 09:06:44;;;;;;;4.68;2.95;;;8.40;99.90;;;;;;5062995;28;20221;-64
2022/05/04 09:09:15;;;;;;;7.32;3.30;;;8.40;99.90;;;;;;5060763;28;20213;-64
2022/05/04 09:11:47;;;;;;;7.90;3.03;;;8.40;99.90;;;;;;5063538;28;20198;-64
2022/05/04 09:14:25;;;;;;;4.38;3.15;;;8.40;99.90;;;;;;5062516;28;20197;-64
2022/05/04 09:16:56;;;;;;;5.05;3.10;;;8.40;99.90;;;;;;5047621;28;20202;-63
2022/05/04 09:19:27;;;;;;;4.97;3.53;;;8.50;99.90;;;;;;5063376;28;20237;-63
2022/05/04 09:21:58;;;;;;;4.63;3.17;;;8.50;99.90;;;;;;5063269;28;20213;-64
2022/05/04 09:24:30;;;;;;;5.93;3.50;;;8.40;99.90;;;;;;5062384;28;20205;-63
2022/05/04 09:27:01;;;;;;;5.07;3.13;;;8.50;99.90;;;;;;5058762;28;20217;-64
2022/05/04 09:29:42;;;;;;;4.22;3.55;;;8.50;99.90;;;;;;5062979;28;20201;-64
2022/05/04 09:32:16;;;;;;;5.90;3.33;;;8.50;99.90;;;;;;5063169;28;20548;-63
2022/05/04 09:34:56;;;;;;;5.28;3.08;;;8.40;99.90;;;;;;5063454;28;20248;-63
2022/05/04 09:46:08;;;;;;;6.93;3.75;;;8.30;99.90;;;;;;5040459;28;20222;-63
2022/05/04 09:48:39;;;;;;;5.82;4.00;;;8.30;99.90;;;;;;5039552;28;20209;-63
2022/05/04 09:51:11;;;;;;;10.25;4.32;;;8.40;99.90;;;;;;5040263;28;20554;-64
2022/05/04 09:53:41;;;;;;;6.90;3.65;;;8.40;99.90;;;;;;5045656;28;20225;-63
2022/05/04 09:56:12;;;;;;;5.88;4.38;;;8.40;99.90;;;;;;5040224;28;20266;-63
2022/05/04 09:58:44;;;;;;;6.10;4.22;;;8.40;99.90;;;;;;5039369;28;20280;-63
2022/05/04 10:01:17;;;;;;;7.68;4.53;;;8.40;99.90;;;;;;5040178;28;20198;-63
2022/05/04 10:03:48;;;;;;;9.77;4.68;;;8.40;99.90;;;;;;5039806;28;20207;-63
2022/05/04 10:06:23;;;;;;;7.18;4.10;;;8.40;99.90;;;;;;5040627;28;20218;-64
2022/05/04 10:08:53;;;;;;;9.68;4.30;;;8.30;99.90;;;;;;5039233;28;20190;-63
2022/05/04 10:11:25;;;;;;;8.85;4.70;;;8.30;99.90;;;;;;5035896;28;20202;-63
2022/05/04 10:14:04;;;;;;;8.23;4.65;;;8.30;99.90;;;;;;5039534;28;20696;-64
2022/05/04 10:16:43;;;;;;;8.00;4.38;;;8.40;99.90;;;;;;5045621;28;20224;-64
2022/05/04 10:19:20;;;;;;;6.47;4.82;;;8.30;99.90;;;;;;5059827;28;20206;-63
2022/05/04 10:21:55;;;;;;;5.63;4.85;;;8.40;99.90;;;;;;5061450;28;20197;-64
2022/05/04 10:24:30;;;;;;;5.65;4.53;;;8.30;99.90;;;;;;5060496;28;20205;-63
2022/05/04 10:27:16;;;;;;;8.02;3.95;;;8.20;99.90;;;;;;5061120;28;20253;-63
2022/05/04 10:32:45;;;;;;;7.28;3.95;;;8.30;99.90;;;;;;5056716;28;20206;-64
2022/05/04 10:35:24;;;;;;;9.02;4.07;;;8.30;99.90;;;;;;5046394;28;20208;-63
2022/05/04 10:38:13;;;;;;;7.82;4.25;;;8.30;99.90;;;;;;5061929;28;20260;-64
2022/05/04 10:40:55;;;;;;;6.57;4.18;;;8.20;99.90;;;;;;5061640;28;20202;-63
2022/05/04 10:43:36;;;;;;;9.02;4.35;;;8.30;99.90;;;;;;5061822;28;20224;-63
2022/05/04 10:46:12;;;;;;;7.50;4.13;;;8.30;99.90;;;;;;5061982;28;20237;-63
2022/05/04 10:48:52;;;;;;;7.00;4.70;;;8.20;99.90;;;;;;5061779;28;20194;-63
2022/05/04 10:51:24;;;;;;;6.45;4.03;;;8.30;99.90;;;;;;5061401;28;20205;-63
2022/05/04 10:54:00;;;;;;;9.65;5.70;;;8.20;99.90;;;;;;5060735;28;20217;-64
2022/05/04 10:56:37;;;;;;;11.57;5.30;;;8.20;99.90;;;;;;5062195;28;20219;-63
2022/05/04 10:59:08;;;;;;;6.72;4.30;;;8.10;99.90;;;;;;5049765;28;20213;-64
2022/05/04 11:01:40;;;;;;;9.85;4.90;;;8.20;99.90;;;;;;5068093;28;20236;-63
2022/05/04 11:04:26;;;;;;;7.55;4.95;;;8.20;99.90;;;;;;5062017;28;20201;-64
2022/05/04 11:07:08;;;;;;;5.30;4.25;;;8.20;99.90;;;;;;5061914;28;20221;-64
2022/05/04 11:09:42;;;;;;;4.95;4.15;;;8.20;99.90;;;;;;5065026;28;20206;-63
2022/05/04 11:12:13;;;;;;;5.60;4.47;;;8.20;99.90;;;;;;5065652;28;20421;-63
2022/05/04 11:14:44;;;;;;;8.00;4.65;;;8.10;99.90;;;;;;5065185;28;20649;-63
2022/05/04 11:17:16;;;;;;;5.40;3.92;;;8.20;99.90;;;;;;5066455;28;20549;-64
2022/05/04 11:19:49;;;;;;;7.20;4.95;;;8.10;99.90;;;;;;5065241;28;20214;-64
2022/05/04 11:22:21;;;;;;;9.52;4.70;;;8.10;99.90;;;;;;5065943;28;20239;-63
2022/05/04 11:25:14;;;;;;;5.93;4.60;;;8.00;99.90;;;;;;5064823;28;20198;-63
2022/05/04 11:27:45;;;;;;;8.38;5.68;;;8.00;99.90;;;;;;5065899;28;20669;-63
2022/05/04 11:30:16;;;;;;;9.63;5.35;;;8.00;99.90;;;;;;5064856;28;20236;-63
2022/05/04 11:32:51;;;;;;;9.63;4.70;;;8.00;99.90;;;;;;5061967;28;20296;-63
2022/05/04 11:35:28;;;;;;;5.40;4.30;;;8.00;99.90;;;;;;5064655;28;20216;-63
2022/05/04 11:37:58;;;;;;;9.45;5.40;;;8.10;99.90;;;;;;5063711;28;20676;-64
2022/05/04 11:40:29;;;;;;;10.88;5.20;;;8.00;99.90;;;;;;5063407;28;20206;-63
2022/05/04 11:43:01;;;;;;;6.90;4.50;;;8.00;99.90;;;;;;5065069;28;20280;-64
2022/05/04 11:45:31;;;;;;;10.40;6.18;;;8.10;99.90;;;;;;5064920;28;20202;-64
2022/05/04 11:48:04;;;;;;;11.15;4.93;;;8.10;99.90;;;;;;5065039;28;20229;-64
2022/05/04 11:50:36;;;;;;;6.65;4.20;;;8.10;99.90;;;;;;5064843;28;20225;-64
2022/05/04 11:53:08;;;;;;;6.00;4.32;;;8.10;99.90;;;;;;5080475;28;20218;-63
2022/05/04 11:55:39;;;;;;;10.02;5.55;;;8.00;99.90;;;;;;5065309;28;20197;-63
2022/05/04 11:58:11;;;;;;;12.73;6.00;;;8.00;99.90;;;;;;5064924;28;20704;-63
2022/05/04 12:00:42;;;;;;;11.75;4.95;;;7.90;99.90;;;;;;5064612;28;20209;-63
2022/05/04 12:03:13;;;;;;;11.95;4.75;;;7.90;99.90;;;;;;5064802;28;20201;-64
2022/05/04 12:05:46;;;;;;;10.05;4.22;;;7.80;99.90;;;;;;5065065;28;20206;-64
2022/05/04 12:08:19;;;;;;;6.03;4.63;;;7.80;99.90;;;;;;5067997;28;20220;-64
2022/05/04 12:10:51;;;;;;;7.88;4.72;;;7.80;99.90;;;;;;5072278;28;20212;-63
2022/05/04 12:13:24;;;;;;;8.18;5.22;;;7.80;99.90;;;;;;5064221;28;20217;-63
2022/05/04 12:15:56;;;;;;;7.30;4.60;;;7.80;99.90;;;;;;5064362;28;20245;-64
2022/05/04 12:18:30;;;;;;;7.10;4.95;;;7.80;99.90;;;;;;5064327;28;20194;-64
2022/05/04 12:21:08;;;;;;;8.85;4.20;;;7.80;99.90;;;;;;5064173;28;20201;-64
2022/05/04 12:23:41;;;;;;;6.22;4.68;;;7.70;99.90;;;;;;5047433;28;20303;-64
2022/05/04 12:26:13;;;;;;;7.18;4.50;;;7.70;99.90;;;;;;5065570;28;20214;-63
2022/05/04 12:33:08;;;;;;;7.53;4.90;;;7.80;99.90;;;;;;5064551;28;20201;-63
2022/05/04 12:34:31;;;;;;;5.03;4.35;;;7.80;99.90;;;;;;5064126;28;20240;-62
2022/05/04 12:37:04;;;;;;;6.72;5.07;;;7.70;99.90;;;;;;5064685;28;20206;-62
2022/05/04 12:39:35;;;;;;;8.25;5.38;;;7.70;99.90;;;;;;5063084;28;20637;-62
2022/05/04 12:42:06;;;;;;;5.53;4.95;;;7.70;99.90;;;;;;5063478;28;20211;-62
2022/05/04 12:44:37;;;;;;;9.15;5.10;;;7.70;99.90;;;;;;5063587;28;20274;-62
2022/05/04 12:47:08;;;;;;;8.90;5.80;;;7.70;99.90;;;;;;5064406;28;20236;-62
2022/05/04 12:49:39;;;;;;;9.38;5.55;;;7.70;99.90;;;;;;5064018;28;20247;-62
2022/05/04 12:52:12;;;;;;;7.00;5.05;;;7.60;99.90;;;;;;5062511;28;20209;-62
2022/05/04 12:54:44;;;;;;;6.45;5.18;;;7.60;99.90;;;;;;5063409;28;20634;-63
2022/05/04 12:57:15;;;;;;;6.93;4.80;;;7.60;99.90;;;;;;5062395;28;20277;-63
2022/05/04 12:59:46;;;;;;;6.30;5.70;;;7.60;99.90;;;;;;5064576;28;20206;-63
2022/05/04 13:02:16;;;;;;;7.28;5.53;;;7.50;99.90;;;;;;5062171;28;20211;-62
2022/05/04 13:04:48;;;;;;;9.23;5.30;;;7.50;99.90;;;;;;5063893;28;20540;-62
2022/05/04 13:07:21;;;;;;;12.48;5.82;;;7.50;99.90;;;;;;5064642;28;20273;-61
2022/05/04 13:09:51;;;;;;;7.03;5.53;;;7.60;99.90;;;;;;5062904;28;20202;-61
2022/05/04 13:12:22;;;;;;;10.65;5.30;;;7.60;99.90;;;;;;5063067;28;20209;-61
2022/05/04 13:14:53;;;;;;;10.05;5.40;;;7.60;99.90;;;;;;5063877;28;20233;-60
2022/05/04 13:17:24;;;;;;;6.45;4.63;;;7.60;99.90;;;;;;5077540;28;20435;-60
2022/05/04 13:19:55;;;;;;;6.82;5.13;;;7.70;99.90;;;;;;5063310;28;20269;-61
2022/05/04 13:22:28;;;;;;;10.88;5.75;;;7.80;99.90;;;;;;5063511;28;20198;-61
2022/05/04 13:25:00;;;;;;;6.35;4.22;;;7.80;99.90;;;;;;5062455;28;20206;-61
2022/05/04 13:27:30;;;;;;;10.18;5.65;;;7.90;99.90;;;;;;5063744;28;20224;-61
2022/05/04 13:30:01;;;;;;;12.95;4.82;;;8.00;99.90;;;;;;5063178;28;20204;-61
2022/05/04 13:32:32;;;;;;;6.20;4.28;;;8.10;99.90;;;;;;5051232;28;20297;-62
2022/05/04 13:35:03;;;;;;;9.10;5.32;;;8.10;99.90;;;;;;5065526;28;20249;-62
2022/05/04 13:37:35;;;;;;;9.02;5.10;;;8.20;99.90;;;;;;5063621;28;20208;-63
2022/05/04 13:40:07;;;;;;;6.05;5.20;;;8.40;99.90;;;;;;5060156;28;20206;-62
2022/05/04 13:42:38;;;;;;;8.95;6.00;;;8.50;99.90;;;;;;5060905;28;20205;-63
2022/05/04 13:45:10;;;;;;;7.33;5.17;;;8.50;99.90;;;;;;5062648;28;20216;-62
2022/05/04 13:47:42;;;;;;;6.63;5.20;;;8.60;99.90;;;;;;5061341;28;20495;-62
2022/05/04 13:53:17;;;;;;;6.63;5.35;;;8.80;99.90;;;;;;5059917;28;21029;-62
2022/05/04 13:55:50;;;;;;;7.22;5.50;;;8.90;99.90;;;;;;5062621;28;20308;-62